sensor_id;sensor_type;location;lat;lon;timestamp;P1;durP1;ratioP1;P2;durP2;ratioP2
11771;SDS011;12556;55.748;13.194;2022-07-23T00:01:44;6.27;;;3.53;;
11771;SDS011;12556;55.748;13.194;2022-07-23T00:04:12;4.47;;;2.70;;
11771;SDS011;12556;55.748;13.194;2022-07-23T00:06:39;5.93;;;2.87;;
11771;SDS011;12556;55.748;13.194;2022-07-23T00:09:07;9.53;;;3.67;;
11771;SDS011;12556;55.748;13.194;2022-07-23T00:11:34;11.97;;;3.97;;
11771;SDS011;12556;55.748;13.194;2022-07-23T00:14:01;10.13;;;3.70;;
11771;SDS011;12556;55.748;13.194;2022-07-23T00:16:28;6.40;;;3.50;;
11771;SDS011;12556;55.748;13.194;2022-07-23T00:18:55;9.77;;;3.67;;
11771;SDS011;12556;55.748;13.194;2022-07-23T00:21:22;7.10;;;3.47;;
11771;SDS011;12556;55.748;13.194;2022-07-23T00:23:49;6.87;;;3.43;;
11771;SDS011;12556;55.748;13.194;2022-07-23T00:26:17;8.47;;;3.90;;
11771;SDS011;12556;55.748;13.194;2022-07-23T00:28:44;15.90;;;4.30;;
11771;SDS011;12556;55.748;13.194;2022-07-23T00:31:10;8.63;;;3.97;;
11771;SDS011;12556;55.748;13.194;2022-07-23T00:33:37;12.40;;;3.80;;
11771;SDS011;12556;55.748;13.194;2022-07-23T00:36:04;10.80;;;4.40;;
11771;SDS011;12556;55.748;13.194;2022-07-23T00:38:32;8.97;;;4.30;;
11771;SDS011;12556;55.748;13.194;2022-07-23T00:40:58;11.23;;;4.10;;
11771;SDS011;12556;55.748;13.194;2022-07-23T00:43:27;7.40;;;3.63;;
11771;SDS011;12556;55.748;13.194;2022-07-23T00:45:53;13.57;;;4.20;;
11771;SDS011;12556;55.748;13.194;2022-07-23T00:48:20;9.43;;;3.67;;
11771;SDS011;12556;55.748;13.194;2022-07-23T00:50:47;9.93;;;3.87;;
11771;SDS011;12556;55.748;13.194;2022-07-23T00:53:14;8.37;;;4.17;;
11771;SDS011;12556;55.748;13.194;2022-07-23T00:55:42;8.90;;;3.77;;
11771;SDS011;12556;55.748;13.194;2022-07-23T00:58:09;7.60;;;3.60;;
11771;SDS011;12556;55.748;13.194;2022-07-23T01:00:38;7.57;;;3.67;;
11771;SDS011;12556;55.748;13.194;2022-07-23T01:03:05;9.13;;;3.57;;
11771;SDS011;12556;55.748;13.194;2022-07-23T01:05:32;9.60;;;3.70;;
11771;SDS011;12556;55.748;13.194;2022-07-23T01:07:59;6.93;;;3.17;;
11771;SDS011;12556;55.748;13.194;2022-07-23T01:10:26;7.03;;;3.70;;
11771;SDS011;12556;55.748;13.194;2022-07-23T01:13:00;9.17;;;3.80;;
11771;SDS011;12556;55.748;13.194;2022-07-23T01:15:27;8.93;;;3.63;;
11771;SDS011;12556;55.748;13.194;2022-07-23T01:17:56;6.37;;;4.23;;
11771;SDS011;12556;55.748;13.194;2022-07-23T01:20:23;7.50;;;4.20;;
11771;SDS011;12556;55.748;13.194;2022-07-23T01:22:52;6.63;;;3.63;;
11771;SDS011;12556;55.748;13.194;2022-07-23T01:25:19;6.03;;;3.33;;
11771;SDS011;12556;55.748;13.194;2022-07-23T01:27:46;5.23;;;3.67;;
11771;SDS011;12556;55.748;13.194;2022-07-23T01:30:13;8.00;;;3.80;;
11771;SDS011;12556;55.748;13.194;2022-07-23T01:32:41;4.83;;;3.37;;
11771;SDS011;12556;55.748;13.194;2022-07-23T01:35:08;8.57;;;3.97;;
11771;SDS011;12556;55.748;13.194;2022-07-23T01:37:35;5.47;;;3.20;;
11771;SDS011;12556;55.748;13.194;2022-07-23T01:40:04;5.90;;;3.70;;
11771;SDS011;12556;55.748;13.194;2022-07-23T01:42:32;6.57;;;3.40;;
11771;SDS011;12556;55.748;13.194;2022-07-23T01:44:59;7.50;;;3.43;;
11771;SDS011;12556;55.748;13.194;2022-07-23T01:47:25;11.10;;;3.63;;
11771;SDS011;12556;55.748;13.194;2022-07-23T01:49:53;10.17;;;3.70;;
11771;SDS011;12556;55.748;13.194;2022-07-23T01:52:19;8.17;;;3.57;;
11771;SDS011;12556;55.748;13.194;2022-07-23T01:54:46;6.70;;;3.63;;
11771;SDS011;12556;55.748;13.194;2022-07-23T01:57:15;6.90;;;3.63;;
11771;SDS011;12556;55.748;13.194;2022-07-23T01:59:41;6.07;;;3.53;;
11771;SDS011;12556;55.748;13.194;2022-07-23T02:02:08;6.20;;;3.57;;
11771;SDS011;12556;55.748;13.194;2022-07-23T02:04:35;10.97;;;4.03;;
11771;SDS011;12556;55.748;13.194;2022-07-23T02:07:03;5.93;;;3.30;;
11771;SDS011;12556;55.748;13.194;2022-07-23T02:09:30;8.73;;;3.77;;
11771;SDS011;12556;55.748;13.194;2022-07-23T02:11:57;5.43;;;3.37;;
11771;SDS011;12556;55.748;13.194;2022-07-23T02:14:26;5.97;;;3.43;;
11771;SDS011;12556;55.748;13.194;2022-07-23T02:16:53;7.03;;;3.53;;
11771;SDS011;12556;55.748;13.194;2022-07-23T02:19:20;6.73;;;3.77;;
11771;SDS011;12556;55.748;13.194;2022-07-23T02:21:47;8.07;;;4.30;;
11771;SDS011;12556;55.748;13.194;2022-07-23T02:24:14;8.60;;;4.13;;
11771;SDS011;12556;55.748;13.194;2022-07-23T02:26:42;7.93;;;3.90;;
11771;SDS011;12556;55.748;13.194;2022-07-23T02:29:08;9.23;;;3.80;;
11771;SDS011;12556;55.748;13.194;2022-07-23T02:31:37;6.83;;;3.60;;
11771;SDS011;12556;55.748;13.194;2022-07-23T02:34:04;11.43;;;4.00;;
11771;SDS011;12556;55.748;13.194;2022-07-23T02:36:32;5.17;;;3.53;;
11771;SDS011;12556;55.748;13.194;2022-07-23T02:38:59;10.80;;;4.10;;
11771;SDS011;12556;55.748;13.194;2022-07-23T02:41:26;10.93;;;4.30;;
11771;SDS011;12556;55.748;13.194;2022-07-23T02:43:53;12.23;;;4.43;;
11771;SDS011;12556;55.748;13.194;2022-07-23T02:46:20;6.97;;;3.90;;
11771;SDS011;12556;55.748;13.194;2022-07-23T02:48:48;8.13;;;4.47;;
11771;SDS011;12556;55.748;13.194;2022-07-23T02:51:15;8.07;;;4.60;;
11771;SDS011;12556;55.748;13.194;2022-07-23T02:53:42;8.47;;;4.10;;
11771;SDS011;12556;55.748;13.194;2022-07-23T02:56:08;9.30;;;3.90;;
11771;SDS011;12556;55.748;13.194;2022-07-23T02:58:35;4.00;;;3.60;;
11771;SDS011;12556;55.748;13.194;2022-07-23T03:01:03;9.60;;;4.17;;
11771;SDS011;12556;55.748;13.194;2022-07-23T03:03:30;7.90;;;3.80;;
11771;SDS011;12556;55.748;13.194;2022-07-23T03:05:59;6.17;;;3.80;;
11771;SDS011;12556;55.748;13.194;2022-07-23T03:08:25;7.73;;;4.33;;
11771;SDS011;12556;55.748;13.194;2022-07-23T03:10:52;7.37;;;4.20;;
11771;SDS011;12556;55.748;13.194;2022-07-23T03:13:19;6.57;;;4.40;;
11771;SDS011;12556;55.748;13.194;2022-07-23T03:15:46;7.50;;;4.10;;
11771;SDS011;12556;55.748;13.194;2022-07-23T03:18:13;12.07;;;4.43;;
11771;SDS011;12556;55.748;13.194;2022-07-23T03:20:39;7.63;;;3.40;;
11771;SDS011;12556;55.748;13.194;2022-07-23T03:23:08;6.83;;;4.07;;
11771;SDS011;12556;55.748;13.194;2022-07-23T03:25:35;8.13;;;3.87;;
11771;SDS011;12556;55.748;13.194;2022-07-23T03:28:01;11.03;;;4.40;;
11771;SDS011;12556;55.748;13.194;2022-07-23T03:30:28;5.10;;;3.97;;
11771;SDS011;12556;55.748;13.194;2022-07-23T03:32:55;10.07;;;4.53;;
11771;SDS011;12556;55.748;13.194;2022-07-23T03:35:22;6.73;;;3.83;;
11771;SDS011;12556;55.748;13.194;2022-07-23T03:37:49;9.07;;;4.53;;
11771;SDS011;12556;55.748;13.194;2022-07-23T03:40:17;8.13;;;3.87;;
11771;SDS011;12556;55.748;13.194;2022-07-23T03:42:44;6.30;;;3.43;;
11771;SDS011;12556;55.748;13.194;2022-07-23T03:45:11;7.03;;;4.13;;
11771;SDS011;12556;55.748;13.194;2022-07-23T03:47:38;7.20;;;4.70;;
11771;SDS011;12556;55.748;13.194;2022-07-23T03:50:05;7.57;;;4.20;;
11771;SDS011;12556;55.748;13.194;2022-07-23T03:52:33;6.60;;;4.27;;
11771;SDS011;12556;55.748;13.194;2022-07-23T03:55:01;4.43;;;3.77;;
11771;SDS011;12556;55.748;13.194;2022-07-23T03:57:29;8.10;;;4.70;;
11771;SDS011;12556;55.748;13.194;2022-07-23T03:59:56;8.77;;;4.27;;
11771;SDS011;12556;55.748;13.194;2022-07-23T04:02:23;8.37;;;4.20;;
11771;SDS011;12556;55.748;13.194;2022-07-23T04:04:50;7.70;;;3.83;;
11771;SDS011;12556;55.748;13.194;2022-07-23T04:07:17;10.50;;;4.37;;
11771;SDS011;12556;55.748;13.194;2022-07-23T04:09:44;6.30;;;4.30;;
11771;SDS011;12556;55.748;13.194;2022-07-23T04:12:11;6.23;;;3.90;;
11771;SDS011;12556;55.748;13.194;2022-07-23T04:14:39;9.50;;;4.53;;
11771;SDS011;12556;55.748;13.194;2022-07-23T04:17:06;5.43;;;4.03;;
11771;SDS011;12556;55.748;13.194;2022-07-23T04:19:33;8.90;;;4.90;;
11771;SDS011;12556;55.748;13.194;2022-07-23T04:22:04;10.13;;;4.30;;
11771;SDS011;12556;55.748;13.194;2022-07-23T04:24:31;9.00;;;4.80;;
11771;SDS011;12556;55.748;13.194;2022-07-23T04:26:58;9.20;;;5.00;;
11771;SDS011;12556;55.748;13.194;2022-07-23T04:29:25;5.87;;;5.03;;
11771;SDS011;12556;55.748;13.194;2022-07-23T04:31:54;9.23;;;5.17;;
11771;SDS011;12556;55.748;13.194;2022-07-23T04:34:21;6.13;;;4.67;;
11771;SDS011;12556;55.748;13.194;2022-07-23T04:36:48;6.97;;;5.27;;
11771;SDS011;12556;55.748;13.194;2022-07-23T04:39:15;7.97;;;4.90;;
11771;SDS011;12556;55.748;13.194;2022-07-23T04:41:42;10.50;;;5.17;;
11771;SDS011;12556;55.748;13.194;2022-07-23T04:44:09;10.10;;;4.97;;
11771;SDS011;12556;55.748;13.194;2022-07-23T04:46:36;9.13;;;4.70;;
11771;SDS011;12556;55.748;13.194;2022-07-23T04:49:04;5.57;;;4.50;;
11771;SDS011;12556;55.748;13.194;2022-07-23T04:51:31;7.33;;;4.77;;
11771;SDS011;12556;55.748;13.194;2022-07-23T04:53:57;11.00;;;4.37;;
11771;SDS011;12556;55.748;13.194;2022-07-23T04:56:24;10.23;;;4.13;;
11771;SDS011;12556;55.748;13.194;2022-07-23T04:58:51;4.67;;;3.47;;
11771;SDS011;12556;55.748;13.194;2022-07-23T05:01:18;7.30;;;3.33;;
11771;SDS011;12556;55.748;13.194;2022-07-23T05:03:45;6.07;;;3.23;;
11771;SDS011;12556;55.748;13.194;2022-07-23T05:06:14;4.47;;;2.53;;
11771;SDS011;12556;55.748;13.194;2022-07-23T05:08:41;4.13;;;2.63;;
11771;SDS011;12556;55.748;13.194;2022-07-23T05:11:08;3.47;;;2.90;;
11771;SDS011;12556;55.748;13.194;2022-07-23T05:13:35;4.33;;;2.40;;
11771;SDS011;12556;55.748;13.194;2022-07-23T05:16:02;5.77;;;2.07;;
11771;SDS011;12556;55.748;13.194;2022-07-23T05:18:29;3.63;;;2.10;;
11771;SDS011;12556;55.748;13.194;2022-07-23T05:20:56;6.63;;;2.60;;
11771;SDS011;12556;55.748;13.194;2022-07-23T05:23:24;2.47;;;2.10;;
11771;SDS011;12556;55.748;13.194;2022-07-23T05:25:51;3.30;;;2.70;;
11771;SDS011;12556;55.748;13.194;2022-07-23T05:28:18;2.80;;;2.50;;
11771;SDS011;12556;55.748;13.194;2022-07-23T05:30:45;3.73;;;2.47;;
11771;SDS011;12556;55.748;13.194;2022-07-23T05:33:12;2.70;;;2.50;;
11771;SDS011;12556;55.748;13.194;2022-07-23T05:35:38;3.90;;;2.47;;
11771;SDS011;12556;55.748;13.194;2022-07-23T05:38:05;3.33;;;2.20;;
11771;SDS011;12556;55.748;13.194;2022-07-23T05:40:33;3.43;;;2.80;;
11771;SDS011;12556;55.748;13.194;2022-07-23T05:43:00;2.97;;;2.13;;
11771;SDS011;12556;55.748;13.194;2022-07-23T05:45:27;5.27;;;2.00;;
11771;SDS011;12556;55.748;13.194;2022-07-23T05:47:54;2.23;;;2.03;;
11771;SDS011;12556;55.748;13.194;2022-07-23T05:50:21;2.60;;;2.13;;
11771;SDS011;12556;55.748;13.194;2022-07-23T05:52:47;4.93;;;2.53;;
11771;SDS011;12556;55.748;13.194;2022-07-23T05:55:14;1.77;;;1.67;;
11771;SDS011;12556;55.748;13.194;2022-07-23T05:57:42;3.93;;;2.13;;
11771;SDS011;12556;55.748;13.194;2022-07-23T06:00:10;2.50;;;1.80;;
11771;SDS011;12556;55.748;13.194;2022-07-23T06:02:37;2.60;;;1.80;;
11771;SDS011;12556;55.748;13.194;2022-07-23T06:05:07;2.37;;;2.00;;
11771;SDS011;12556;55.748;13.194;2022-07-23T06:07:34;3.97;;;2.07;;
11771;SDS011;12556;55.748;13.194;2022-07-23T06:10:02;2.73;;;2.20;;
11771;SDS011;12556;55.748;13.194;2022-07-23T06:12:30;4.67;;;2.00;;
11771;SDS011;12556;55.748;13.194;2022-07-23T06:14:58;3.60;;;2.50;;
11771;SDS011;12556;55.748;13.194;2022-07-23T06:17:25;2.17;;;1.80;;
11771;SDS011;12556;55.748;13.194;2022-07-23T06:19:52;2.40;;;1.90;;
11771;SDS011;12556;55.748;13.194;2022-07-23T06:22:19;4.90;;;2.40;;
11771;SDS011;12556;55.748;13.194;2022-07-23T06:24:46;2.40;;;2.10;;
11771;SDS011;12556;55.748;13.194;2022-07-23T06:27:13;3.33;;;2.10;;
11771;SDS011;12556;55.748;13.194;2022-07-23T06:29:40;3.33;;;2.00;;
11771;SDS011;12556;55.748;13.194;2022-07-23T06:32:08;2.50;;;2.00;;
11771;SDS011;12556;55.748;13.194;2022-07-23T06:34:35;2.20;;;1.83;;
11771;SDS011;12556;55.748;13.194;2022-07-23T06:37:02;1.90;;;1.80;;
11771;SDS011;12556;55.748;13.194;2022-07-23T06:39:29;2.63;;;2.27;;
11771;SDS011;12556;55.748;13.194;2022-07-23T06:41:55;3.90;;;1.90;;
11771;SDS011;12556;55.748;13.194;2022-07-23T06:44:22;3.00;;;2.40;;
11771;SDS011;12556;55.748;13.194;2022-07-23T06:46:49;2.67;;;1.90;;
11771;SDS011;12556;55.748;13.194;2022-07-23T06:49:17;2.93;;;1.90;;
11771;SDS011;12556;55.748;13.194;2022-07-23T06:51:44;4.17;;;2.10;;
11771;SDS011;12556;55.748;13.194;2022-07-23T06:54:11;4.40;;;2.07;;
11771;SDS011;12556;55.748;13.194;2022-07-23T06:56:38;3.80;;;2.07;;
11771;SDS011;12556;55.748;13.194;2022-07-23T06:59:05;6.17;;;2.17;;
11771;SDS011;12556;55.748;13.194;2022-07-23T07:01:32;2.77;;;1.90;;
11771;SDS011;12556;55.748;13.194;2022-07-23T07:03:59;4.83;;;1.87;;
11771;SDS011;12556;55.748;13.194;2022-07-23T07:06:27;4.60;;;2.23;;
11771;SDS011;12556;55.748;13.194;2022-07-23T07:08:54;4.30;;;2.10;;
11771;SDS011;12556;55.748;13.194;2022-07-23T07:11:21;3.10;;;1.90;;
11771;SDS011;12556;55.748;13.194;2022-07-23T07:13:48;2.67;;;1.67;;
11771;SDS011;12556;55.748;13.194;2022-07-23T07:16:15;2.00;;;1.90;;
11771;SDS011;12556;55.748;13.194;2022-07-23T07:18:42;1.73;;;1.47;;
11771;SDS011;12556;55.748;13.194;2022-07-23T07:21:09;2.20;;;1.30;;
11771;SDS011;12556;55.748;13.194;2022-07-23T07:23:37;3.17;;;1.83;;
11771;SDS011;12556;55.748;13.194;2022-07-23T07:26:04;2.60;;;2.00;;
11771;SDS011;12556;55.748;13.194;2022-07-23T07:28:31;4.50;;;2.00;;
11771;SDS011;12556;55.748;13.194;2022-07-23T07:30:58;2.63;;;1.90;;
11771;SDS011;12556;55.748;13.194;2022-07-23T07:33:25;2.67;;;2.20;;
11771;SDS011;12556;55.748;13.194;2022-07-23T07:35:52;2.80;;;1.93;;
11771;SDS011;12556;55.748;13.194;2022-07-23T07:38:19;4.80;;;2.10;;
11771;SDS011;12556;55.748;13.194;2022-07-23T07:40:47;8.60;;;1.90;;
11771;SDS011;12556;55.748;13.194;2022-07-23T07:43:14;3.17;;;2.03;;
11771;SDS011;12556;55.748;13.194;2022-07-23T07:45:41;3.10;;;1.87;;
11771;SDS011;12556;55.748;13.194;2022-07-23T07:48:08;3.90;;;1.90;;
11771;SDS011;12556;55.748;13.194;2022-07-23T07:50:34;3.70;;;1.50;;
11771;SDS011;12556;55.748;13.194;2022-07-23T07:53:01;2.67;;;1.80;;
11771;SDS011;12556;55.748;13.194;2022-07-23T07:55:28;1.90;;;1.50;;
11771;SDS011;12556;55.748;13.194;2022-07-23T07:57:57;2.57;;;1.70;;
11771;SDS011;12556;55.748;13.194;2022-07-23T08:00:24;4.30;;;1.90;;
11771;SDS011;12556;55.748;13.194;2022-07-23T08:02:51;3.30;;;1.97;;
11771;SDS011;12556;55.748;13.194;2022-07-23T08:05:20;3.13;;;2.00;;
11771;SDS011;12556;55.748;13.194;2022-07-23T08:07:47;2.50;;;1.77;;
11771;SDS011;12556;55.748;13.194;2022-07-23T08:10:15;2.20;;;1.80;;
11771;SDS011;12556;55.748;13.194;2022-07-23T08:12:42;3.20;;;2.13;;
11771;SDS011;12556;55.748;13.194;2022-07-23T08:15:12;7.63;;;2.30;;
11771;SDS011;12556;55.748;13.194;2022-07-23T08:17:41;5.17;;;2.53;;
11771;SDS011;12556;55.748;13.194;2022-07-23T08:20:09;3.47;;;2.33;;
11771;SDS011;12556;55.748;13.194;2022-07-23T08:22:43;3.57;;;2.40;;
11771;SDS011;12556;55.748;13.194;2022-07-23T08:25:11;3.90;;;2.60;;
11771;SDS011;12556;55.748;13.194;2022-07-23T08:27:38;6.97;;;2.43;;
11771;SDS011;12556;55.748;13.194;2022-07-23T08:30:06;3.23;;;1.97;;
11771;SDS011;12556;55.748;13.194;2022-07-23T08:32:35;4.57;;;2.47;;
11771;SDS011;12556;55.748;13.194;2022-07-23T08:35:14;6.73;;;2.20;;
11771;SDS011;12556;55.748;13.194;2022-07-23T08:37:41;5.13;;;2.90;;
11771;SDS011;12556;55.748;13.194;2022-07-23T08:40:08;4.33;;;2.23;;
11771;SDS011;12556;55.748;13.194;2022-07-23T08:42:36;3.23;;;2.73;;
11771;SDS011;12556;55.748;13.194;2022-07-23T08:45:04;4.17;;;2.43;;
11771;SDS011;12556;55.748;13.194;2022-07-23T08:47:37;4.47;;;2.87;;
11771;SDS011;12556;55.748;13.194;2022-07-23T08:50:04;4.27;;;3.27;;
11771;SDS011;12556;55.748;13.194;2022-07-23T08:52:33;3.70;;;2.87;;
11771;SDS011;12556;55.748;13.194;2022-07-23T08:55:02;5.80;;;3.53;;
11771;SDS011;12556;55.748;13.194;2022-07-23T08:57:29;3.43;;;2.27;;
11771;SDS011;12556;55.748;13.194;2022-07-23T08:59:56;3.20;;;2.50;;
11771;SDS011;12556;55.748;13.194;2022-07-23T09:02:23;4.80;;;2.70;;
11771;SDS011;12556;55.748;13.194;2022-07-23T09:04:51;3.30;;;2.97;;
11771;SDS011;12556;55.748;13.194;2022-07-23T09:07:18;4.30;;;3.10;;
11771;SDS011;12556;55.748;13.194;2022-07-23T09:09:45;9.17;;;3.87;;
11771;SDS011;12556;55.748;13.194;2022-07-23T09:12:12;7.10;;;3.50;;
11771;SDS011;12556;55.748;13.194;2022-07-23T09:14:40;4.37;;;3.33;;
11771;SDS011;12556;55.748;13.194;2022-07-23T09:17:10;5.20;;;2.90;;
11771;SDS011;12556;55.748;13.194;2022-07-23T09:19:37;3.00;;;2.77;;
11771;SDS011;12556;55.748;13.194;2022-07-23T09:22:19;5.70;;;3.50;;
11771;SDS011;12556;55.748;13.194;2022-07-23T09:25:03;5.30;;;3.07;;
11771;SDS011;12556;55.748;13.194;2022-07-23T09:27:45;2.97;;;2.70;;
11771;SDS011;12556;55.748;13.194;2022-07-23T09:30:19;3.13;;;2.63;;
11771;SDS011;12556;55.748;13.194;2022-07-23T09:33:03;5.90;;;3.00;;
11771;SDS011;12556;55.748;13.194;2022-07-23T09:35:47;5.70;;;2.90;;
11771;SDS011;12556;55.748;13.194;2022-07-23T09:38:17;3.90;;;2.60;;
11771;SDS011;12556;55.748;13.194;2022-07-23T09:40:45;4.93;;;2.50;;
11771;SDS011;12556;55.748;13.194;2022-07-23T09:43:13;3.80;;;2.07;;
11771;SDS011;12556;55.748;13.194;2022-07-23T09:45:53;2.50;;;2.23;;
11771;SDS011;12556;55.748;13.194;2022-07-23T09:48:40;4.23;;;2.37;;
11771;SDS011;12556;55.748;13.194;2022-07-23T09:51:07;3.23;;;2.00;;
11771;SDS011;12556;55.748;13.194;2022-07-23T09:53:35;2.33;;;1.80;;
11771;SDS011;12556;55.748;13.194;2022-07-23T09:56:02;2.30;;;1.60;;
11771;SDS011;12556;55.748;13.194;2022-07-23T09:58:29;3.13;;;1.80;;
11771;SDS011;12556;55.748;13.194;2022-07-23T10:00:57;3.90;;;1.60;;
11771;SDS011;12556;55.748;13.194;2022-07-23T10:03:25;3.00;;;1.90;;
11771;SDS011;12556;55.748;13.194;2022-07-23T10:05:52;1.90;;;1.80;;
11771;SDS011;12556;55.748;13.194;2022-07-23T10:08:20;2.10;;;1.90;;
11771;SDS011;12556;55.748;13.194;2022-07-23T10:10:49;3.70;;;1.60;;
11771;SDS011;12556;55.748;13.194;2022-07-23T10:13:17;3.27;;;1.90;;
11771;SDS011;12556;55.748;13.194;2022-07-23T10:16:01;2.07;;;1.43;;
11771;SDS011;12556;55.748;13.194;2022-07-23T10:18:28;3.93;;;1.83;;
11771;SDS011;12556;55.748;13.194;2022-07-23T10:20:56;2.93;;;2.33;;
11771;SDS011;12556;55.748;13.194;2022-07-23T10:23:27;2.40;;;2.20;;
11771;SDS011;12556;55.748;13.194;2022-07-23T10:26:03;3.13;;;2.10;;
11771;SDS011;12556;55.748;13.194;2022-07-23T10:28:50;2.47;;;2.20;;
11771;SDS011;12556;55.748;13.194;2022-07-23T10:31:35;2.87;;;1.97;;
11771;SDS011;12556;55.748;13.194;2022-07-23T10:34:14;2.57;;;2.00;;
11771;SDS011;12556;55.748;13.194;2022-07-23T10:36:48;3.10;;;2.30;;
11771;SDS011;12556;55.748;13.194;2022-07-23T10:39:19;4.97;;;2.20;;
11771;SDS011;12556;55.748;13.194;2022-07-23T10:41:51;5.30;;;1.90;;
11771;SDS011;12556;55.748;13.194;2022-07-23T10:44:19;4.00;;;2.00;;
11771;SDS011;12556;55.748;13.194;2022-07-23T10:46:55;2.87;;;1.60;;
11771;SDS011;12556;55.748;13.194;2022-07-23T10:49:40;2.50;;;2.00;;
11771;SDS011;12556;55.748;13.194;2022-07-23T10:52:17;1.80;;;1.70;;
11771;SDS011;12556;55.748;13.194;2022-07-23T10:54:50;2.27;;;1.97;;
11771;SDS011;12556;55.748;13.194;2022-07-23T10:57:20;1.77;;;1.67;;
11771;SDS011;12556;55.748;13.194;2022-07-23T11:02:47;2.10;;;1.80;;
11771;SDS011;12556;55.748;13.194;2022-07-23T11:05:15;2.13;;;1.73;;
11771;SDS011;12556;55.748;13.194;2022-07-23T11:10:51;3.10;;;1.90;;
11771;SDS011;12556;55.748;13.194;2022-07-23T11:13:27;2.90;;;1.57;;
11771;SDS011;12556;55.748;13.194;2022-07-23T11:18:53;4.27;;;1.70;;
11771;SDS011;12556;55.748;13.194;2022-07-23T11:21:49;2.40;;;1.53;;
11771;SDS011;12556;55.748;13.194;2022-07-23T11:24:17;2.50;;;1.87;;
11771;SDS011;12556;55.748;13.194;2022-07-23T11:29:49;2.73;;;1.80;;
11771;SDS011;12556;55.748;13.194;2022-07-23T11:32:22;3.23;;;1.90;;
11771;SDS011;12556;55.748;13.194;2022-07-23T11:35:00;2.80;;;2.23;;
11771;SDS011;12556;55.748;13.194;2022-07-23T11:37:31;2.13;;;2.00;;
11771;SDS011;12556;55.748;13.194;2022-07-23T11:40:00;3.83;;;2.40;;
11771;SDS011;12556;55.748;13.194;2022-07-23T11:42:29;4.20;;;2.30;;
11771;SDS011;12556;55.748;13.194;2022-07-23T11:44:57;3.17;;;2.80;;
11771;SDS011;12556;55.748;13.194;2022-07-23T11:47:25;2.50;;;2.37;;
11771;SDS011;12556;55.748;13.194;2022-07-23T11:49:53;3.70;;;2.50;;
11771;SDS011;12556;55.748;13.194;2022-07-23T11:52:21;4.40;;;3.03;;
11771;SDS011;12556;55.748;13.194;2022-07-23T11:54:49;3.90;;;2.70;;
11771;SDS011;12556;55.748;13.194;2022-07-23T11:57:18;4.27;;;3.03;;
11771;SDS011;12556;55.748;13.194;2022-07-23T11:59:47;3.87;;;2.50;;
11771;SDS011;12556;55.748;13.194;2022-07-23T12:02:19;3.50;;;2.60;;
11771;SDS011;12556;55.748;13.194;2022-07-23T12:04:47;2.77;;;2.57;;
11771;SDS011;12556;55.748;13.194;2022-07-23T12:07:28;6.77;;;3.07;;
11771;SDS011;12556;55.748;13.194;2022-07-23T12:09:57;5.33;;;2.83;;
11771;SDS011;12556;55.748;13.194;2022-07-23T12:12:26;4.37;;;3.10;;
11771;SDS011;12556;55.748;13.194;2022-07-23T12:14:54;3.90;;;3.10;;
11771;SDS011;12556;55.748;13.194;2022-07-23T12:17:27;3.67;;;3.13;;
11771;SDS011;12556;55.748;13.194;2022-07-23T12:19:55;5.73;;;2.77;;
11771;SDS011;12556;55.748;13.194;2022-07-23T12:22:23;4.50;;;3.10;;
11771;SDS011;12556;55.748;13.194;2022-07-23T12:24:57;3.17;;;2.90;;
11771;SDS011;12556;55.748;13.194;2022-07-23T12:27:26;3.33;;;2.93;;
11771;SDS011;12556;55.748;13.194;2022-07-23T12:29:53;3.20;;;2.70;;
11771;SDS011;12556;55.748;13.194;2022-07-23T12:32:21;2.80;;;2.57;;
11771;SDS011;12556;55.748;13.194;2022-07-23T12:35:01;5.80;;;3.13;;
11771;SDS011;12556;55.748;13.194;2022-07-23T12:37:31;3.73;;;3.27;;
11771;SDS011;12556;55.748;13.194;2022-07-23T12:42:55;3.63;;;2.87;;
11771;SDS011;12556;55.748;13.194;2022-07-23T12:45:24;3.33;;;3.00;;
11771;SDS011;12556;55.748;13.194;2022-07-23T12:47:57;4.23;;;2.77;;
11771;SDS011;12556;55.748;13.194;2022-07-23T12:50:39;3.03;;;2.73;;
11771;SDS011;12556;55.748;13.194;2022-07-23T12:53:09;4.33;;;3.10;;
11771;SDS011;12556;55.748;13.194;2022-07-23T12:55:41;3.03;;;2.70;;
11771;SDS011;12556;55.748;13.194;2022-07-23T12:58:10;2.40;;;2.20;;
11771;SDS011;12556;55.748;13.194;2022-07-23T13:00:58;3.13;;;2.67;;
11771;SDS011;12556;55.748;13.194;2022-07-23T13:03:30;2.20;;;2.00;;
11771;SDS011;12556;55.748;13.194;2022-07-23T13:05:59;2.43;;;2.17;;
11771;SDS011;12556;55.748;13.194;2022-07-23T13:08:28;1.90;;;1.80;;
11771;SDS011;12556;55.748;13.194;2022-07-23T13:10:56;3.03;;;2.40;;
11771;SDS011;12556;55.748;13.194;2022-07-23T13:13:24;2.57;;;2.40;;
11771;SDS011;12556;55.748;13.194;2022-07-23T13:15:53;2.53;;;2.13;;
11771;SDS011;12556;55.748;13.194;2022-07-23T13:18:21;2.80;;;2.60;;
11771;SDS011;12556;55.748;13.194;2022-07-23T13:20:50;2.63;;;2.43;;
11771;SDS011;12556;55.748;13.194;2022-07-23T13:23:17;2.60;;;2.40;;
11771;SDS011;12556;55.748;13.194;2022-07-23T13:25:44;4.87;;;2.73;;
11771;SDS011;12556;55.748;13.194;2022-07-23T13:28:11;2.90;;;2.70;;
11771;SDS011;12556;55.748;13.194;2022-07-23T13:30:39;3.67;;;2.70;;
11771;SDS011;12556;55.748;13.194;2022-07-23T13:33:06;2.60;;;2.40;;
11771;SDS011;12556;55.748;13.194;2022-07-23T13:35:34;2.60;;;2.40;;
11771;SDS011;12556;55.748;13.194;2022-07-23T13:38:04;4.27;;;2.70;;
11771;SDS011;12556;55.748;13.194;2022-07-23T13:40:33;4.23;;;2.10;;
11771;SDS011;12556;55.748;13.194;2022-07-23T13:43:00;2.37;;;2.17;;
11771;SDS011;12556;55.748;13.194;2022-07-23T13:45:27;2.37;;;2.17;;
11771;SDS011;12556;55.748;13.194;2022-07-23T13:47:54;3.23;;;2.20;;
11771;SDS011;12556;55.748;13.194;2022-07-23T13:50:21;4.87;;;2.40;;
11771;SDS011;12556;55.748;13.194;2022-07-23T13:52:48;4.20;;;2.50;;
11771;SDS011;12556;55.748;13.194;2022-07-23T13:55:17;3.30;;;2.30;;
11771;SDS011;12556;55.748;13.194;2022-07-23T13:57:44;2.90;;;2.70;;
11771;SDS011;12556;55.748;13.194;2022-07-23T14:00:11;3.30;;;3.00;;
11771;SDS011;12556;55.748;13.194;2022-07-23T14:02:39;2.50;;;2.20;;
11771;SDS011;12556;55.748;13.194;2022-07-23T14:05:07;2.93;;;2.30;;
11771;SDS011;12556;55.748;13.194;2022-07-23T14:07:35;2.60;;;2.40;;
11771;SDS011;12556;55.748;13.194;2022-07-23T14:10:04;3.73;;;2.27;;
11771;SDS011;12556;55.748;13.194;2022-07-23T14:12:33;3.63;;;2.10;;
11771;SDS011;12556;55.748;13.194;2022-07-23T14:15:00;1.93;;;1.83;;
11771;SDS011;12556;55.748;13.194;2022-07-23T14:17:28;2.30;;;2.07;;
11771;SDS011;12556;55.748;13.194;2022-07-23T14:19:55;1.90;;;1.80;;
11771;SDS011;12556;55.748;13.194;2022-07-23T14:22:22;2.20;;;1.93;;
11771;SDS011;12556;55.748;13.194;2022-07-23T14:24:49;3.43;;;1.60;;
11771;SDS011;12556;55.748;13.194;2022-07-23T14:27:16;2.17;;;1.70;;
11771;SDS011;12556;55.748;13.194;2022-07-23T14:29:45;2.57;;;1.90;;
11771;SDS011;12556;55.748;13.194;2022-07-23T14:32:11;1.83;;;1.60;;
11771;SDS011;12556;55.748;13.194;2022-07-23T14:34:38;1.60;;;1.50;;
11771;SDS011;12556;55.748;13.194;2022-07-23T14:37:05;1.90;;;1.47;;
11771;SDS011;12556;55.748;13.194;2022-07-23T14:39:32;1.60;;;1.50;;
11771;SDS011;12556;55.748;13.194;2022-07-23T14:41:59;2.33;;;1.60;;
11771;SDS011;12556;55.748;13.194;2022-07-23T14:44:26;1.30;;;1.30;;
11771;SDS011;12556;55.748;13.194;2022-07-23T14:46:54;1.30;;;1.30;;
11771;SDS011;12556;55.748;13.194;2022-07-23T14:49:21;2.27;;;1.50;;
11771;SDS011;12556;55.748;13.194;2022-07-23T14:51:48;1.53;;;1.23;;
11771;SDS011;12556;55.748;13.194;2022-07-23T14:54:15;2.83;;;1.50;;
11771;SDS011;12556;55.748;13.194;2022-07-23T14:56:42;2.50;;;1.10;;